Sonic Adventure (DX): Overall Rankings

Records: Times | Rings | Scores | Races | Bosses | Freestyle
Leaders: Times | Rings | Scores | Races | Bosses | Freestyle | Overall
Rank Order Asc Player Percent Points Date
1 Sonicspeedruner 98.4% 238 12-17-14
2 Gamepro011 97.5% 385 12-17-14
3 DarkPolarNight 96.4% 556 12-17-14
4 Jawzun 94.0% 938 12-17-14
5 Dashjump 92.1% 1246 12-17-14
6 DarkspinesSonic 91.2% 1379 12-17-14
7 Avento128bits 90.7% 1458 12-17-14
8 ike6252 90.6% 1479 12-17-14
9 F-Man 86.4% 2132 12-17-14
10 yoshifan 84.2% 2487 12-17-14
11 Coolfansonic 83.9% 2535 12-17-14
12 frankoredstrato 83.7% 2565 12-17-14
13 HyperSonic7701 82.8% 2712 12-17-14
14 francisco 82.6% 2730 12-17-14
15 Marth 82.3% 2784 12-17-14
16 PfoSonic 80.8% 3019 12-17-14
17 Paragod 80.2% 3119 12-17-14
18 InferSaime 80.2% 3120 12-17-14
19 THC98 78.7% 3348 12-17-14
20 Stefan 77.2% 3596 12-17-14
21 RPGnutter 75.0% 3934 12-17-14
22 bertin 74.7% 3976 12-17-14
23 sonicam 72.6% 4316 12-17-14
24 Combo 66.8% 5232 12-17-14
25 SkyLights 65.5% 5433 12-17-14
26 Diamond 63.5% 5748 12-17-14
27 GerbilSoft 61.3% 6097 12-17-14
28 Auriman1 61.3% 6101 12-17-14
29 OmegaDJ 61.2% 6107 12-17-14
30 magnum12 60.3% 6256 12-17-14
31 Dawid8404 60.2% 6265 12-17-14
32 Thorn 58.3% 6564 12-17-14
33 P1 Pause 58.1% 6597 12-17-14
34 mike89 56.8% 6802 12-17-14
35 Groudon199 54.8% 7116 12-17-14
36 Dave Cramer 54.8% 7123 12-17-14
37 chainchumper 54.3% 7206 12-17-14
38 Shadow Jacky 53.8% 7286 12-17-14
39 Parax 53.5% 7326 12-17-14
40 Psymar 48.5% 8122 12-17-14
41 Chao_Fan 46.8% 8389 12-17-14
42 Arch 46.4% 8446 12-17-14
43 mauserman 45.9% 8526 12-17-14
44 Quartz 45.6% 8581 12-17-14
45 teamblackarms 44.6% 8725 12-17-14
46 Psyknux 44.0% 8828 12-17-14
47 James_Bertolli 43.7% 8878 12-17-14
48 NintenDan 43.4% 8928 12-17-14
49 Webber3000 42.7% 9030 12-17-14
50 Turbos 42.5% 9061 12-17-14
51 Ring Rush 42.4% 9081 12-17-14
52 Cream147 42.3% 9093 12-17-14
53 Fr3nZy 42.3% 9096 12-17-14
54 videogamemaster777 42.2% 9112 12-17-14
55 Siavash Tazari 41.8% 9167 12-17-14
56 buddychaos0415 41.4% 9230 12-17-14
57 SadisticMystic 40.6% 9366 12-17-14
58 eggFL 40.0% 9465 12-17-14
59 Redd 39.2% 9577 12-17-14
60 SB737 38.4% 9714 12-17-14
61 drminus 37.8% 9797 12-17-14
62 supersonicfan 37.1% 9912 12-17-14
63 FuzZerd 35.9% 10098 12-17-14
64 elecmouse101 35.3% 10201 12-17-14
65 supersonic465 35.2% 10212 12-17-14
66 metanightmare22 33.7% 10456 12-17-14
67 dabestgamer 33.5% 10480 12-17-14
68 Austinf 33.5% 10481 12-17-14
69 Aitamen 33.5% 10484 12-17-14
70 Cyan Ryan 33.4% 10505 12-17-14
71 MiStEr_ShAoLiN 33.3% 10520 12-17-14
72 itsPersonnal 32.2% 10693 12-17-14
73 Cybrax 31.5% 10802 12-17-14
74 Andrea Ritsu 31.3% 10826 12-17-14
75 SilvertheAlmighty 31.2% 10843 12-17-14
76 danieldude 30.7% 10919 12-17-14
77 VMU Player Banned 29.3% 11153 12-17-14
78 Staf 28.8% 11219 12-17-14
79 Omega Rafael Santos 28.7% 11242 12-17-14
80 The T 28.5% 11265 12-17-14
81 EngiNerd 28.3% 11308 12-17-14
82 lordmetalsonic 27.6% 11418 12-17-14
83 Hipertails12 27.0% 11506 12-17-14
84 welldooder64 26.9% 11517 12-17-14
85 GreatStar 26.8% 11534 12-17-14
86 Sondow 26.8% 11539 12-17-14
87 The Great Lord Mick 26.6% 11573 12-17-14
88 LinksDarkArrows 26.4% 11605 12-17-14
89 Skylace 25.5% 11749 12-17-14
90 Mastakirby 24.9% 11833 12-17-14
91 Rolken 23.9% 11993 12-17-14
92 Xia 22.3% 12246 12-17-14
93 Kogen Player Banned 22.3% 12257 12-17-14
94 Spinballwizard 22.1% 12277 12-17-14
95 f0rever_zer0 21.7% 12347 12-17-14
96 Cutiefox 21.7% 12348 12-17-14
97 Don 21.6% 12366 12-17-14
98 Nimrod 21.5% 12381 12-17-14
99 Miles9999 21.4% 12387 12-17-14
100 andres430 20.9% 12475 12-17-14
101 SonicDash1999 20.9% 12478 12-17-14
102 Cruizer 20.8% 12493 12-17-14
103 iSonicKid2K 20.6% 12519 12-17-14
104 SADXTryHard 20.3% 12573 12-17-14
105 GarnetPrincess 19.8% 12642 12-17-14
106 knuckles_sonic8 19.1% 12753 12-17-14
107 Team_Yoshi 18.4% 12868 12-17-14
107 The Knuckles Chao 18.4% 12868 12-17-14
109 FoxBoy 18.0% 12934 12-17-14
110 Termon 18.0% 12935 12-17-14
111 KinkyCadence 17.9% 12944 12-17-14
112 Sonic Singularity 15.9% 13259 12-17-14
113 Pokemonmaster888 15.8% 13271 12-17-14
114 BigAL49 14.9% 13423 12-17-14
115 SilverSonic 14.7% 13445 12-17-14
116 MPit08 14.6% 13462 12-17-14
117 Mo Player Banned 14.3% 13518 12-17-14
118 HyperSonic64 13.6% 13616 12-17-14
119 Cod4Scopes 13.6% 13619 12-17-14
120 booo95 13.5% 13636 12-17-14
121 Chawkk 13.3% 13666 12-17-14
122 SuperSonic101 13.2% 13686 12-17-14
123 Maxinfamily 13.0% 13724 12-17-14
124 Hunters13 12.9% 13733 12-17-14
125 Kanimayo_Jp 12.7% 13767 12-17-14
126 BrokenArthritis 12.6% 13785 12-17-14
127 LilZero 12.6% 13786 12-17-14
127 PsyBorg 12.6% 13786 12-17-14
129 Flying Fox 12.5% 13804 12-17-14
130 paulie9990 12.4% 13808 12-17-14
131 sonicspeed 12.0% 13882 12-17-14
132 douglas 11.7% 13920 12-17-14
133 Matt_TY 11.5% 13950 12-17-14
134 Therio 11.4% 13968 12-17-14
135 Cooljay 10.8% 14062 12-17-14
136 SeaWolf 10.7% 14075 12-17-14
137 joecoolgames 10.7% 14076 12-17-14
138 welshmoose05 10.2% 14165 12-17-14
139 TFEC Headshot 10.1% 14171 12-17-14
140 crazy1993 9.8% 14215 12-17-14
141 Mcshuggets 9.7% 14231 12-17-14
142 videogamer1014 9.5% 14263 12-17-14
143 imazor017 9.3% 14304 12-17-14
144 SonicAD 9.2% 14309 12-17-14
145 nuckrieg 9.2% 14312 12-17-14
146 niscool 9.2% 14318 12-17-14
147 SirTobbii 9.1% 14325 12-17-14
148 superjupi 9.0% 14342 12-17-14
149 Shadowthegreat 9.0% 14344 12-17-14
150 SaviourDC 8.7% 14400 12-17-14
151 iarebored 8.6% 14405 12-17-14
152 sonamyfan666 8.6% 14407 12-17-14
153 SonicKnuckles 8.5% 14427 12-17-14
154 Werey 8.3% 14451 12-17-14
155 adf 8.2% 14482 12-17-14
156 Megaman EXE565 8.0% 14508 12-17-14
157 ArcticDragon 7.9% 14526 12-17-14
158 Platformer 7.6% 14569 12-17-14
159 timpkmn89 7.5% 14592 12-17-14
160 wheatrich 7.4% 14607 12-17-14
161 Swift Hobo 7.3% 14609 12-17-14
162 Rickyman48 7.2% 14636 12-17-14
163 KitsuneYamaro 7.0% 14670 12-17-14
164 Triseena 6.8% 14697 12-17-14
165 CyberShadow 6.6% 14730 12-17-14
166 dShadow 6.6% 14733 12-17-14
167 slade23 6.5% 14741 12-17-14
168 Starlight Sable 6.5% 14742 12-17-14
169 IsisDazs 6.4% 14764 12-17-14
170 SonicWinDX 6.2% 14786 12-17-14
171 BlankTH 6.2% 14788 12-17-14
172 Monkeh 5.9% 14830 12-17-14
173 Richied 5.9% 14842 12-17-14
174 DaDude 5.8% 14858 12-17-14
175 sonicd5 5.6% 14882 12-17-14
176 Zip 5.6% 14886 12-17-14
177 tal39h 5.2% 14942 12-17-14
178 Kirbymon30 5.1% 14965 12-17-14
179 soniccoloursunleashed 4.9% 14989 12-17-14
180 Drflash55 4.9% 14991 12-17-14
181 Bass 4.8% 15014 12-17-14
182 neaolas 4.8% 15016 12-17-14
183 superiorsonic 4.7% 15034 12-17-14
184 UninspiredUsername 4.6% 15037 12-17-14
185 Sonicsuperstar1 4.6% 15042 12-17-14
186 zapp 4.6% 15043 12-17-14
187 gamefreak1292 4.5% 15061 12-17-14
188 SonicU260 4.2% 15103 12-17-14
189 Chaos_Overlord 4.2% 15106 12-17-14
190 TakaRikka 4.1% 15127 12-17-14
191 Valfore 4.0% 15131 12-17-14
192 ShinigamiMachine 3.8% 15168 12-17-14
193 Regano1000 3.8% 15173 12-17-14
194 MK 3.6% 15198 12-17-14
195 Ace747 3.6% 15201 12-17-14
196 Illidan 3.2% 15260 12-17-14
197 Venick409 3.1% 15273 12-17-14
198 Brian_pso 3.1% 15277 12-17-14
198 Sithwarrior26 3.1% 15277 12-17-14
200 ingx24 3.0% 15296 12-17-14
201 TheChaosEmeraIds 3.0% 15300 12-17-14
202 SkyBon 2.9% 15310 12-17-14
203 Nickson98 2.9% 15311 12-17-14
204 Fozer 2.8% 15323 12-17-14
205 Colomb_30 2.8% 15329 12-17-14
206 FSSRandomvids 2.8% 15334 12-17-14
207 sonic29887 2.7% 15337 12-17-14
208 TheUltraBlur 2.7% 15350 12-17-14
209 1stKirbyever 2.6% 15355 12-17-14
210 Th4tN1nj4Turtl3 2.4% 15391 12-17-14
211 Cort_pso 2.3% 15400 12-17-14
212 ieatatsonic 2.3% 15401 12-17-14
213 Mariosonic15 2.3% 15410 12-17-14
214 Doom-9 2.3% 15411 12-17-14
215 SuperSonic71087 2.2% 15423 12-17-14
216 MStitomix 2.2% 15428 12-17-14
217 HermitHelmet 2.1% 15429 12-17-14
218 Artie 2.1% 15441 12-17-14
219 Jose_15 2.0% 15454 12-17-14
220 a_moustache 1.9% 15464 12-17-14
221 Questionguy555 1.9% 15465 12-17-14
222 djmat 1.9% 15470 12-17-14
223 sonicandamy 1.7% 15496 12-17-14
224 Heroes_Hater 1.7% 15499 12-17-14
225 LancexExWx 1.7% 15500 12-17-14
226 Paixii 1.7% 15505 12-17-14
226 son1cgu1tar 1.7% 15505 12-17-14
228 BallzeH 1.6% 15521 12-17-14
229 Mankster101 1.5% 15525 12-17-14
230 BecauseWarAnvil 1.5% 15526 12-17-14
231 Jamixesa 1.5% 15530 12-17-14
232 Shanekilz 1.5% 15539 12-17-14
232 SpiritDragon1995 1.5% 15539 12-17-14
234 Crydio 1.4% 15541 12-17-14
235 ReuelBrony 1.4% 15549 12-17-14
236 stanski 1.4% 15554 12-17-14
237 Sonique Hedgehog 1.3% 15561 12-17-14
238 p0ker 1.3% 15570 12-17-14
239 Blue Infamy 1.2% 15571 12-17-14
240 ErrortheCucco 1.2% 15580 12-17-14
241 Rikum22 1.2% 15583 12-17-14
242 Arthas 1.2% 15584 12-17-14
243 sonic1001 1.1% 15591 12-17-14
244 WingedInsignia 1.1% 15595 12-17-14
245 syco1098 1.1% 15598 12-17-14
246 AJSIV 1.1% 15600 12-17-14
247 Sonic the Hedgehod16 1.1% 15601 12-17-14
248 Calfd 1.0% 15609 12-17-14
249 BlackArmsShadow 1.0% 15618 12-17-14
250 themachoman202 0.9% 15622 12-17-14
251 shadowblast63 Player Banned 0.9% 15629 12-17-14
252 Fivavoa 0.9% 15630 12-17-14
252 MastaToken 0.9% 15630 12-17-14
254 Ben1502 0.9% 15631 12-17-14
254 Greham Adelphis 0.9% 15631 12-17-14
256 darkstarblaze 0.9% 15633 12-17-14
256 Mr. Jones 0.9% 15633 12-17-14
256 ptorflaxendrosis 0.9% 15633 12-17-14
259 arcfx1985 0.8% 15635 12-17-14
260 FlandreScarlet9999vr 0.8% 15638 12-17-14
261 Gvozdevik 0.8% 15642 12-17-14
261 Knuckles 0.8% 15642 12-17-14
263 KaM Mark MaK 0.8% 15648 12-17-14
264 BeeAwwb 0.8% 15649 12-17-14
265 ShadouZaHejjihoggu 0.7% 15655 12-17-14
266 Sonic62 0.7% 15661 12-17-14
267 darkersupershadic 0.7% 15663 12-17-14
268 Sogeking 0.7% 15665 12-17-14
269 Got4n 0.6% 15668 12-17-14
269 Sarger001 0.6% 15668 12-17-14
269 Shadygamerfreak 0.6% 15668 12-17-14
269 SonicK100 0.6% 15668 12-17-14
273 dragondragon18 0.6% 15669 12-17-14
274 Grady219 0.6% 15670 12-17-14
275 Jawaah 0.6% 15673 12-17-14
276 Antek 0.6% 15677 12-17-14
277 Klaus 0.6% 15679 12-17-14
278 SilverK 0.6% 15680 12-17-14
279 BioShadow 0.5% 15684 12-17-14
280 SpinDashMaster 0.5% 15689 12-17-14
281 Videogamer123 0.5% 15690 12-17-14
282 Mariobutch 0.5% 15691 12-17-14
283 Egor305 0.4% 15702 12-17-14
283 oTaiIilLsS 0.4% 15702 12-17-14
285 isaihtb11 0.4% 15704 12-17-14
286 OhNoes! 0.4% 15705 12-17-14
287 Mad Andy 0.4% 15706 12-17-14
288 zaktu40 0.4% 15707 12-17-14
289 gaara1234 0.4% 15710 12-17-14
290 gamed00d 0.4% 15711 12-17-14
291 Mister_Slick 0.3% 15721 12-17-14
292 Sonic06Fan 0.3% 15722 12-17-14
293 Rush Hero 0.3% 15724 12-17-14
294 SonicMega167 0.3% 15727 12-17-14
295 Iwannabelink 0.3% 15728 12-17-14
296 sonknuck23 0.2% 15733 12-17-14
297 gamer1245 0.2% 15738 12-17-14
298 DanielTheFalcon 0.2% 15740 12-17-14
299 Burningskull123 0.1% 15746 12-17-14
300 Sonicontherun 0.1% 15756 12-17-14
301 Lil_Dude 0.1% 15760 12-17-14
302 antiwwe 0.0% 15762 12-17-14
303 Genuine Hedgehog 0.0% 15766 12-17-14
304 Cbwade15 0.0% 15767 12-17-14
305 Tyrouble 0.0% 15769 12-17-14
306 MegabombBlade 0.0% 15776 12-17-14
306 neji_hyuuga 0.0% 15776 12-17-14
306 Over 0.0% 15776 12-17-14
306 sdj6707 Player Banned 0.0% 15776 12-17-14
306 Tran Sonic Fan Player Banned 0.0% 15776 12-17-14

This page is using the New Data Table System. [FUTURE]

Game ID: 3 | Category ID: 10
Hits: 61,292 | Hits This Month: 209 | DB Calls: 21 | Mem Usage: 5.42 MB | Time: 0.16s | Printable

The Sonic Center v3.9
Copyright 2003-2011 by The Sonic Center Team.